This is the latest recevied weather packets stored in our database for station/object DH1NAI-6. If no packets are shown the sender has not sent any weather packets the latest 10 day(s).
| Time | Temp. | Humidity | Pressure | Rain* | Wind** | Luminosity | Snow |
|---|---|---|---|---|---|---|---|
| 1778066097 | 14.44° C | 83% | 1004.6 hPa | 0 mm | - | 112 W/m² | - |
| 1778065489 | 14.44° C | 84% | 1004.5 hPa | 0 mm | - | 61 W/m² | - |
| 1778064865 | 13.89° C | 85% | 1004.6 hPa | 0 mm | - | 59 W/m² | - |
| 1778064257 | 14.44° C | 84% | 1004.6 hPa | 0 mm | - | 58 W/m² | - |
| 1778063649 | 14.44° C | 84% | 1004.5 hPa | 0 mm | - | 57 W/m² | - |
| 1778063041 | 14.44° C | 85% | 1004.5 hPa | 0 mm | - | 56 W/m² | - |
| 1778062433 | 13.89° C | 86% | 1004.6 hPa | 0 mm | - | 74 W/m² | - |
| 1778061825 | 13.33° C | 86% | 1004.7 hPa | 0 mm | - | 46 W/m² | - |
| 1778061212 | 14.44° C | 85% | 1004.5 hPa | 0 mm | - | 26 W/m² | - |
| 1778060609 | 15.56° C | 83% | 1004.4 hPa | 0 mm | - | 235 W/m² | - |
| 1778060001 | 13.89° C | 88% | 1004.5 hPa | 0 mm | - | 68 W/m² | - |
| 1778059377 | 13.89° C | 88% | 1004.4 hPa | 0 mm | - | 55 W/m² | - |
| 1778058769 | 13.33° C | 89% | 1004.7 hPa | 0 mm | - | 186 W/m² | - |
| 1778058145 | 12.78° C | 91% | 1004.4 hPa | 0 mm | - | 83 W/m² | - |
| 1778057537 | 12.78° C | 91% | 1004.3 hPa | 0 mm | - | 79 W/m² | - |
| 1778056929 | 12.78° C | 91% | 1004.2 hPa | 0 mm | - | 69 W/m² | - |
| 1778056321 | 12.78° C | 91% | 1004.3 hPa | 0 mm | - | 48 W/m² | - |
| 1778055713 | 12.78° C | 91% | 1004.2 hPa | 0 mm | - | 49 W/m² | - |
| 1778055105 | 12.22° C | 95% | 1004.2 hPa | 0 mm | - | 193 W/m² | - |
| 1778054492 | 11.67° C | 96% | 1004 hPa | 0 mm | - | 24 W/m² | - |
| 1778053889 | 11.67° C | 97% | 1004.1 hPa | 0 mm | - | 48 W/m² | - |
| 1778053281 | 11.67° C | 97% | 1004 hPa | 0 mm | - | 44 W/m² | - |
| 1778052674 | 11.67° C | 97% | 1003.9 hPa | 0 mm | - | 28 W/m² | - |
| 1778052065 | 12.22° C | 98% | 1003.8 hPa | 0 mm | - | 28 W/m² | - |
| 1778051458 | 11.67° C | 98% | 1003.8 hPa | 0 mm | - | 53 W/m² | - |
* Rain latest hour (hover to see other rain measurements)
** Current wind speed in m/s (hover to see current wind gust speed)